createdAt,value
2018-03-02T06:39:27.424Z,95
2018-03-02T06:40:27.231Z,95
2018-03-02T06:41:27.859Z,100
2018-03-02T06:42:27.947Z,100
2018-03-02T06:43:27.828Z,105
2018-03-02T06:44:28.185Z,105
2018-03-02T06:45:28.240Z,110
2018-03-02T06:46:27.732Z,115
2018-03-02T06:47:28.232Z,115
2018-03-02T06:48:28.414Z,120
2018-03-02T06:49:28.053Z,120
2018-03-02T06:50:27.806Z,120
2018-03-02T06:51:28.060Z,125
2018-03-02T06:52:28.264Z,130
2018-03-02T06:53:28.341Z,130
2018-03-02T06:54:28.763Z,135
2018-03-02T06:55:28.089Z,135
2018-03-02T06:56:29.148Z,140
2018-03-02T06:57:29.292Z,140
2018-03-02T06:58:29.952Z,145
2018-03-02T06:59:30.101Z,145
2018-03-02T07:00:30.248Z,150
2018-03-02T07:01:29.511Z,150
2018-03-02T07:02:30.144Z,155
2018-03-02T07:03:29.428Z,155
2018-03-02T07:04:30.196Z,160
2018-03-02T07:05:30.346Z,160
2018-03-02T07:06:30.872Z,160
2018-03-02T07:07:30.773Z,165
2018-03-02T07:08:31.388Z,170
2018-03-02T07:09:31.188Z,170
2018-03-02T07:10:31.196Z,170
2018-03-02T07:11:30.636Z,175
2018-03-02T07:12:31.004Z,180
2018-03-02T07:13:30.997Z,180
2018-03-02T07:14:31.495Z,185
2018-03-02T07:15:31.806Z,185
2018-03-02T07:16:31.570Z,185
2018-03-02T07:17:31.402Z,190
2018-03-02T07:18:31.655Z,190
2018-03-02T07:19:32.973Z,195
2018-03-02T07:20:31.220Z,195
2018-03-02T07:21:30.590Z,200
2018-03-02T07:22:31.363Z,200
2018-03-02T07:23:31.423Z,205
2018-03-02T07:24:31.936Z,205
2018-03-02T07:25:31.685Z,210
2018-03-02T07:26:31.684Z,210
2018-03-02T07:27:32.096Z,215
2018-03-02T07:28:32.314Z,220
2018-03-02T07:29:32.394Z,215
2018-03-02T07:30:33.112Z,220
2018-03-02T07:31:33.090Z,225
2018-03-02T07:32:32.353Z,230
2018-03-02T07:33:33.098Z,235
2018-03-02T07:34:33.725Z,265
2018-03-02T07:35:32.836Z,300
2018-03-02T07:36:33.343Z,315
2018-03-02T07:37:34.447Z,310
2018-03-02T07:38:33.474Z,305
2018-03-02T07:39:33.208Z,320
2018-03-02T07:40:33.065Z,310
2018-03-02T07:41:33.784Z,320
2018-03-02T07:42:33.467Z,350
2018-03-02T07:43:33.880Z,375
2018-03-02T07:44:33.720Z,350
2018-03-02T07:45:34.108Z,370
2018-03-02T07:46:34.771Z,425
2018-03-02T07:47:34.012Z,390
2018-03-02T07:48:34.685Z,375
2018-03-02T07:49:34.803Z,365
2018-03-02T07:50:34.956Z,400
2018-03-02T07:51:34.687Z,485
2018-03-02T07:52:36.027Z,475
2018-03-02T07:53:35.488Z,505
2018-03-02T07:54:36.566Z,535
2018-03-02T07:55:36.329Z,460
2018-03-02T07:56:36.771Z,435
2018-03-02T07:57:36.726Z,535
2018-03-02T07:58:36.864Z,650
2018-03-02T07:59:36.054Z,585
2018-03-02T08:00:36.046Z,565
2018-03-02T08:01:36.723Z,580
2018-03-02T08:02:36.699Z,530
2018-03-02T08:03:36.663Z,510
2018-03-02T08:04:36.604Z,525
2018-03-02T08:05:36.854Z,630
2018-03-02T08:06:36.770Z,585
2018-03-02T08:07:36.696Z,480
2018-03-02T08:08:37.115Z,415
2018-03-02T08:09:36.720Z,410
2018-03-02T08:10:36.871Z,430
2018-03-02T08:11:37.439Z,495
2018-03-02T08:12:37.153Z,505
2018-03-02T08:13:38.797Z,460
2018-03-02T08:14:37.773Z,560
2018-03-02T08:15:36.817Z,600
2018-03-02T08:16:39.189Z,610
2018-03-02T08:17:37.849Z,630
2018-03-02T08:18:37.998Z,640
2018-03-02T08:19:37.796Z,740
2018-03-02T08:20:38.723Z,815
2018-03-02T08:21:37.916Z,815
2018-03-02T08:22:37.857Z,805
2018-03-02T08:23:37.788Z,905
2018-03-02T08:24:38.848Z,910
2018-03-02T08:25:37.826Z,845
2018-03-02T08:26:38.734Z,860
2018-03-02T08:27:38.123Z,820
2018-03-02T08:28:38.802Z,825
2018-03-02T08:29:37.791Z,780
2018-03-02T08:30:38.790Z,680
2018-03-02T08:31:39.442Z,760
2018-03-02T08:32:38.788Z,805
2018-03-02T08:33:38.353Z,780
2018-03-02T08:34:39.976Z,760
2018-03-02T08:35:40.805Z,755
2018-03-02T08:36:39.945Z,845
2018-03-02T08:37:39.287Z,950
2018-03-02T08:38:39.427Z,1030
2018-03-02T08:39:39.686Z,1120
2018-03-02T08:40:39.185Z,1105
2018-03-02T08:41:39.622Z,1105
2018-03-02T08:42:40.897Z,1105
2018-03-02T08:43:40.636Z,1055
2018-03-02T08:44:41.276Z,1075
2018-03-02T08:45:41.021Z,1115
2018-03-02T08:46:40.695Z,1135
2018-03-02T08:47:40.555Z,1160
2018-03-02T08:48:40.539Z,1145
2018-03-02T08:49:40.917Z,1095
2018-03-02T08:50:40.288Z,1100
2018-03-02T08:51:40.245Z,1155
2018-03-02T08:52:39.891Z,1190
2018-03-02T08:53:40.566Z,1215
2018-03-02T08:54:40.333Z,1255
2018-03-02T08:55:40.516Z,1210
2018-03-02T08:56:41.274Z,1230
2018-03-02T08:57:40.833Z,1230
2018-03-02T08:58:41.396Z,1260
2018-03-02T08:59:41.505Z,1285
2018-03-02T09:00:42.978Z,1260
2018-03-02T09:01:42.016Z,1245
2018-03-02T09:02:41.482Z,1275
2018-03-02T09:03:42.692Z,1270
2018-03-02T09:04:42.933Z,1250
2018-03-02T09:05:42.229Z,1250
2018-03-02T09:06:43.178Z,1320
2018-03-02T09:07:42.963Z,1315
2018-03-02T09:08:42.188Z,1295
2018-03-02T09:09:42.550Z,1305
2018-03-02T09:10:42.442Z,1305
2018-03-02T09:11:43.056Z,1305
2018-03-02T09:12:43.105Z,1325
2018-03-02T09:13:42.363Z,1330
2018-03-02T09:14:43.152Z,1350
2018-03-02T09:15:43.023Z,1365
2018-03-02T09:16:42.653Z,1350
2018-03-02T09:17:43.162Z,1380
2018-03-02T09:18:43.795Z,1335
2018-03-02T09:19:43.280Z,1370
2018-03-02T09:20:43.802Z,1360
2018-03-02T09:21:43.306Z,1400
2018-03-02T09:22:43.960Z,1370
2018-03-02T09:23:43.480Z,1430
2018-03-02T09:24:43.791Z,1435
2018-03-02T09:25:43.398Z,1475
2018-03-02T09:26:43.877Z,1505
2018-03-02T09:27:44.015Z,1520
2018-03-02T09:28:44.169Z,1550
2018-03-02T09:29:44.730Z,1615
2018-03-02T09:30:44.248Z,1665
2018-03-02T09:31:44.472Z,1685
2018-03-02T09:32:44.624Z,1700
2018-03-02T09:33:44.635Z,1775
2018-03-02T09:34:45.071Z,1875
2018-03-02T09:35:45.507Z,1865
2018-03-02T09:36:45.038Z,1950
2018-03-02T09:37:45.546Z,1980
2018-03-02T09:38:45.002Z,2030
2018-03-02T09:39:44.935Z,1955
2018-03-02T09:40:45.412Z,1955
2018-03-02T09:41:45.778Z,2045
2018-03-02T09:42:46.568Z,2140
2018-03-02T09:43:46.858Z,2025
2018-03-02T09:44:46.450Z,1875
2018-03-02T09:45:46.742Z,1890
2018-03-02T09:46:46.838Z,1755
2018-03-02T09:47:46.971Z,1540
2018-03-02T09:48:46.998Z,1365
2018-03-02T09:49:47.547Z,1320
2018-03-02T09:50:47.438Z,1175
2018-03-02T09:51:47.941Z,1060
2018-03-02T09:52:47.692Z,1185
2018-03-02T09:53:47.916Z,1130
2018-03-02T09:54:48.298Z,1030
2018-03-02T09:55:48.200Z,1005
2018-03-02T09:56:48.852Z,1015
2018-03-02T09:57:48.716Z,1020
2018-03-02T09:58:48.733Z,1040
2018-03-02T09:59:49.034Z,1025
2018-03-02T10:00:49.176Z,970
2018-03-02T10:01:49.552Z,1005
2018-03-02T10:02:48.703Z,1030
2018-03-02T10:03:49.545Z,1060
2018-03-02T10:04:49.013Z,1090
2018-03-02T10:05:49.804Z,1085
2018-03-02T10:06:50.540Z,1120
2018-03-02T10:08:03.272Z,1115
2018-03-02T10:08:52.539Z,1130
2018-03-02T10:09:49.357Z,1110
2018-03-02T10:10:49.632Z,1095
2018-03-02T10:11:49.684Z,1070
2018-03-02T10:12:50.299Z,1035
2018-03-02T10:13:49.720Z,1015
2018-03-02T10:14:50.287Z,1015
2018-03-02T10:15:50.003Z,995
2018-03-02T10:16:49.755Z,990
2018-03-02T10:17:50.313Z,975
2018-03-02T10:18:50.614Z,955
2018-03-02T10:20:01.535Z,940
2018-03-02T10:21:05.266Z,940
2018-03-02T10:21:50.173Z,970
2018-03-02T10:22:50.473Z,920
2018-03-02T10:23:50.510Z,920
2018-03-02T10:24:50.565Z,875
2018-03-02T10:25:50.868Z,845
2018-03-02T10:26:50.634Z,805
2018-03-02T10:27:50.090Z,780
2018-03-02T10:28:50.642Z,745
2018-03-02T10:29:50.642Z,730
2018-03-02T10:30:51.567Z,735
2018-03-02T10:31:51.048Z,725
2018-03-02T10:32:51.684Z,715
2018-03-02T10:33:51.941Z,705
2018-03-02T10:34:51.739Z,700
2018-03-02T10:35:51.587Z,670
2018-03-02T10:36:51.774Z,655
2018-03-02T10:37:51.513Z,640
2018-03-02T10:38:51.562Z,635
2018-03-02T10:39:51.282Z,640
2018-03-02T10:40:51.760Z,630
2018-03-02T10:41:52.285Z,625
2018-03-02T10:42:52.268Z,620
2018-03-02T10:43:52.053Z,615
2018-03-02T10:44:51.628Z,600
2018-03-02T10:45:52.163Z,585
2018-03-02T10:46:52.423Z,590
2018-03-02T10:47:52.596Z,590
2018-03-02T10:48:53.685Z,590
2018-03-02T10:49:54.045Z,585
2018-03-02T10:50:54.286Z,580
2018-03-02T10:51:54.690Z,570
2018-03-02T10:52:55.001Z,560
2018-03-02T10:53:53.235Z,570
2018-03-02T10:54:53.127Z,555
2018-03-02T10:55:54.114Z,555
2018-03-02T10:56:53.590Z,550
2018-03-02T10:57:53.740Z,570
2018-03-02T10:58:53.233Z,570
2018-03-02T10:59:53.522Z,575
2018-03-02T11:00:53.350Z,645
2018-03-02T11:01:54.131Z,675
2018-03-02T11:02:54.039Z,675
2018-03-02T11:03:53.768Z,595
2018-03-02T11:04:54.165Z,505
2018-03-02T11:05:53.655Z,470
2018-03-02T11:06:54.790Z,450
2018-03-02T11:07:54.203Z,440
2018-03-02T11:08:53.791Z,430
2018-03-02T11:09:53.710Z,415
2018-03-02T11:10:53.806Z,410
2018-03-02T11:11:54.656Z,405
2018-03-02T11:12:54.029Z,405
2018-03-02T11:13:54.444Z,400
2018-03-02T11:14:53.939Z,395
2018-03-02T11:15:53.884Z,390
2018-03-02T11:16:53.459Z,380
2018-03-02T11:17:53.252Z,375
2018-03-02T11:18:54.073Z,370
2018-03-02T11:19:54.115Z,370
2018-03-02T11:20:55.444Z,360
2018-03-02T11:21:54.424Z,360
2018-03-02T11:22:54.156Z,350
2018-03-02T11:23:54.701Z,340
2018-03-02T11:24:54.236Z,335
2018-03-02T11:25:53.912Z,325
2018-03-02T11:26:54.551Z,315
2018-03-02T11:27:54.542Z,315
2018-03-02T11:28:54.352Z,310
2018-03-02T11:29:54.044Z,305
2018-03-02T11:30:53.968Z,305
2018-03-02T11:31:54.676Z,300
2018-03-02T11:32:54.770Z,295
2018-03-02T11:33:54.548Z,290
2018-03-02T11:34:55.000Z,285
2018-03-02T11:35:54.618Z,275
2018-03-02T11:36:54.648Z,270
2018-03-02T11:37:54.479Z,265
2018-03-02T11:38:55.472Z,265
2018-03-02T11:39:54.988Z,265
2018-03-02T11:40:55.057Z,260
2018-03-02T11:41:55.787Z,260
2018-03-02T11:42:55.373Z,260
2018-03-02T11:43:56.736Z,260
2018-03-02T11:44:57.678Z,255
2018-03-02T11:45:55.984Z,255
2018-03-02T11:46:55.674Z,250
2018-03-02T11:47:56.186Z,250
2018-03-02T11:48:58.180Z,250
2018-03-02T11:49:56.046Z,245
2018-03-02T11:50:56.427Z,245
2018-03-02T11:51:56.838Z,245
2018-03-02T11:52:57.846Z,245
2018-03-02T11:53:57.787Z,245
2018-03-02T11:54:57.823Z,245
2018-03-02T11:55:57.274Z,240
2018-03-02T11:56:58.112Z,240
2018-03-02T11:57:58.150Z,240
2018-03-02T11:58:58.781Z,240
2018-03-02T11:59:59.040Z,240
2018-03-02T12:00:59.196Z,240
2018-03-02T12:01:59.185Z,240
2018-03-02T12:02:58.788Z,235
2018-03-02T12:03:59.137Z,235
2018-03-02T12:04:59.364Z,235
2018-03-02T12:05:58.982Z,235
2018-03-02T12:06:59.351Z,230
2018-03-02T12:07:59.027Z,230
2018-03-02T12:08:59.319Z,230
2018-03-02T12:10:00.930Z,225
2018-03-02T12:11:16.361Z,225
2018-03-02T12:11:59.127Z,225
2018-03-02T12:12:59.500Z,220
2018-03-02T12:14:00.174Z,220
2018-03-02T12:15:00.167Z,215
2018-03-02T12:16:00.462Z,210
2018-03-02T12:17:00.730Z,210
2018-03-02T12:18:00.735Z,215
2018-03-02T12:19:00.453Z,215
2018-03-02T12:20:00.830Z,210
2018-03-02T12:21:00.315Z,210
2018-03-02T12:22:00.358Z,210
2018-03-02T12:23:00.687Z,210
2018-03-02T12:24:00.965Z,210
2018-03-02T12:25:01.245Z,210
2018-03-02T12:26:00.792Z,210
2018-03-02T12:27:01.131Z,210
2018-03-02T12:28:01.420Z,210
2018-03-02T12:29:01.199Z,205
2018-03-02T12:30:01.962Z,205
2018-03-02T12:31:02.226Z,205
2018-03-02T12:32:01.728Z,205
2018-03-02T12:33:01.740Z,205
2018-03-02T12:34:01.974Z,205
2018-03-02T12:35:02.029Z,205
2018-03-02T12:36:02.054Z,200
2018-03-02T12:37:02.364Z,200
2018-03-02T12:38:02.856Z,200
2018-03-02T12:39:01.804Z,200
2018-03-02T12:40:02.874Z,200
2018-03-02T12:41:02.596Z,200
2018-03-02T12:42:02.486Z,195
2018-03-02T12:43:02.919Z,195
2018-03-02T12:44:02.277Z,195
2018-03-02T12:45:02.275Z,190
2018-03-02T12:46:02.656Z,190
2018-03-02T12:47:02.666Z,190
2018-03-02T12:48:02.957Z,190
2018-03-02T12:49:03.304Z,190
2018-03-02T12:50:03.382Z,185
2018-03-02T12:51:03.087Z,185
2018-03-02T12:52:07.607Z,185
2018-03-02T12:53:03.245Z,185
2018-03-02T12:54:04.097Z,185
2018-03-02T12:55:03.609Z,180
2018-03-02T12:56:03.678Z,180
2018-03-02T12:57:03.905Z,180
2018-03-02T12:58:03.914Z,180
2018-03-02T12:59:03.979Z,180
2018-03-02T13:00:17.208Z,180
2018-03-02T13:01:03.880Z,175
2018-03-02T13:02:03.933Z,180
2018-03-02T13:03:04.442Z,175
2018-03-02T13:04:04.696Z,170
2018-03-02T13:05:05.040Z,170
2018-03-02T13:06:04.923Z,170
2018-03-02T13:07:05.092Z,175
2018-03-02T13:08:04.785Z,170
2018-03-02T13:09:05.954Z,170
2018-03-02T13:10:05.857Z,170
2018-03-02T13:11:05.295Z,170
2018-03-02T13:12:05.029Z,170
2018-03-02T13:13:05.148Z,170
2018-03-02T13:14:05.458Z,170
2018-03-02T13:15:06.390Z,165
2018-03-02T13:16:05.503Z,165
2018-03-02T13:17:06.073Z,165
2018-03-02T13:18:06.382Z,165
2018-03-02T13:19:05.867Z,165
2018-03-02T13:20:06.424Z,165
2018-03-02T13:21:06.238Z,165
2018-03-02T13:22:06.239Z,165
2018-03-02T13:23:05.960Z,160
2018-03-02T13:24:06.427Z,160
2018-03-02T13:25:06.838Z,160
2018-03-02T13:26:07.849Z,160
2018-03-02T13:27:06.241Z,160
2018-03-02T13:28:06.552Z,160
2018-03-02T13:29:06.960Z,160
2018-03-02T13:30:06.600Z,160
2018-03-02T13:31:07.011Z,160
2018-03-02T13:32:06.954Z,160
2018-03-02T13:33:06.471Z,160
2018-03-02T13:34:06.824Z,155
2018-03-02T13:35:06.854Z,155
2018-03-02T13:36:07.770Z,155
2018-03-02T13:37:08.073Z,155
2018-03-02T13:38:06.835Z,155
2018-03-02T13:39:07.106Z,155
2018-03-02T13:40:06.678Z,150
2018-03-02T13:41:06.730Z,150
2018-03-02T13:42:06.836Z,150
2018-03-02T13:43:07.377Z,155
2018-03-02T13:44:07.365Z,150
2018-03-02T13:45:07.127Z,150
2018-03-02T13:46:07.678Z,150
2018-03-02T13:47:07.792Z,145
2018-03-02T13:48:07.529Z,145
2018-03-02T13:49:07.683Z,145
2018-03-02T13:50:07.590Z,145
2018-03-02T13:51:08.705Z,145
2018-03-02T13:52:08.331Z,145
2018-03-02T13:53:07.891Z,145
2018-03-02T13:54:08.783Z,145
2018-03-02T13:55:09.246Z,140
2018-03-02T13:56:08.280Z,140
2018-03-02T13:57:08.397Z,140
2018-03-02T13:58:08.727Z,140
2018-03-02T13:59:08.768Z,140
2018-03-02T14:00:22.311Z,140
2018-03-02T14:01:08.939Z,140
2018-03-02T14:02:09.265Z,140
2018-03-02T14:03:09.114Z,140
2018-03-02T14:04:09.295Z,135
2018-03-02T14:05:09.445Z,135
2018-03-02T14:06:09.388Z,135
2018-03-02T14:07:10.522Z,135
2018-03-02T14:08:09.435Z,135
2018-03-02T14:09:09.422Z,135
2018-03-02T14:10:09.988Z,135
2018-03-02T14:11:10.661Z,135
2018-03-02T14:12:10.164Z,135
2018-03-02T14:13:09.914Z,130
2018-03-02T14:14:10.634Z,130
2018-03-02T14:15:11.059Z,130
2018-03-02T14:16:10.276Z,130
2018-03-02T14:17:10.459Z,130
2018-03-02T14:18:10.866Z,130
2018-03-02T14:19:10.530Z,125
2018-03-02T14:20:10.471Z,130
2018-03-02T14:21:10.894Z,125
2018-03-02T14:22:11.547Z,125
2018-03-02T14:23:11.582Z,125
2018-03-02T14:24:11.772Z,125
2018-03-02T14:25:12.013Z,125
2018-03-02T14:26:12.258Z,130
2018-03-02T14:27:12.396Z,120
2018-03-02T14:28:12.828Z,120
2018-03-02T14:29:12.951Z,120
2018-03-02T14:30:13.734Z,120
2018-03-02T14:31:12.821Z,120
2018-03-02T14:32:13.597Z,120
2018-03-02T14:33:12.910Z,120
2018-03-02T14:34:13.245Z,120
2018-03-02T14:35:13.276Z,120
2018-03-02T14:36:12.907Z,115
2018-03-02T14:37:13.458Z,115
2018-03-02T14:38:13.470Z,115
2018-03-02T14:39:13.706Z,115
2018-03-02T14:40:14.506Z,115
2018-03-02T14:41:14.419Z,115
2018-03-02T14:42:14.179Z,115
2018-03-02T14:43:14.833Z,115
2018-03-02T14:44:14.047Z,115
2018-03-02T14:45:14.968Z,115
2018-03-02T14:46:14.383Z,115
2018-03-02T14:47:14.908Z,115
2018-03-02T14:48:14.990Z,115
2018-03-02T14:49:15.109Z,115
2018-03-02T14:50:15.162Z,115
2018-03-02T14:51:15.757Z,115
2018-03-02T14:52:16.031Z,110
2018-03-02T14:53:15.740Z,110
2018-03-02T14:54:15.577Z,110
2018-03-02T14:55:15.725Z,110
2018-03-02T14:56:16.172Z,110
2018-03-02T14:57:16.094Z,110
2018-03-02T14:58:16.566Z,110
2018-03-02T14:59:16.573Z,110
2018-03-02T15:00:23.024Z,105
2018-03-02T15:01:23.524Z,105
2018-03-02T15:02:23.564Z,105
2018-03-02T15:03:25.130Z,105
2018-03-02T15:04:24.184Z,105
2018-03-02T15:05:23.617Z,105
2018-03-02T15:06:24.415Z,100
2018-03-02T15:07:24.024Z,100
2018-03-02T15:08:24.212Z,100
2018-03-02T15:09:24.626Z,100
2018-03-02T15:10:25.187Z,100
2018-03-02T15:11:24.883Z,100
2018-03-02T15:12:25.321Z,100
2018-03-02T15:13:25.749Z,95
2018-03-02T15:14:25.721Z,95
2018-03-02T15:15:26.150Z,95
2018-03-02T15:16:25.776Z,95
2018-03-02T15:17:25.632Z,95
2018-03-02T15:18:25.996Z,95
2018-03-02T15:19:28.292Z,95
2018-03-02T15:20:27.116Z,90
2018-03-02T15:21:27.498Z,90
2018-03-02T15:22:27.441Z,90
2018-03-02T15:23:27.428Z,90
2018-03-02T15:24:27.782Z,90
2018-03-02T15:25:26.644Z,90
2018-03-02T15:26:27.331Z,85
2018-03-02T15:27:28.187Z,85
2018-03-02T15:28:27.327Z,85
2018-03-02T15:29:28.156Z,85
2018-03-02T15:30:27.406Z,85
2018-03-02T15:31:28.761Z,85
2018-03-02T15:32:28.869Z,80
2018-03-02T15:33:29.003Z,80
2018-03-02T15:34:30.256Z,80
2018-03-02T15:35:28.732Z,80
2018-03-02T15:36:28.544Z,80
2018-03-02T15:37:29.475Z,75
2018-03-02T15:38:30.031Z,75
2018-03-02T15:39:29.372Z,75
2018-03-02T15:40:29.419Z,75
2018-03-02T15:41:28.666Z,75
2018-03-02T15:42:28.185Z,70
2018-03-02T15:43:28.671Z,70
2018-03-02T15:44:28.324Z,70
2018-03-02T15:45:28.628Z,70
2018-03-02T15:46:28.606Z,70
2018-03-02T15:47:30.650Z,70
2018-03-02T15:48:31.064Z,65
2018-03-02T15:49:30.829Z,65
2018-03-02T15:50:30.481Z,65
2018-03-02T15:51:29.184Z,65
2018-03-02T15:52:30.843Z,65
2018-03-02T15:53:30.530Z,60
2018-03-02T15:54:31.837Z,60
2018-03-02T15:55:31.114Z,60
2018-03-02T15:56:30.993Z,60
2018-03-02T15:57:31.361Z,60
2018-03-02T15:58:31.382Z,55
2018-03-02T15:59:31.363Z,55
2018-03-02T16:00:31.637Z,55
2018-03-02T16:01:31.596Z,55
2018-03-02T16:02:31.209Z,50
2018-03-02T16:03:29.459Z,50
2018-03-02T16:04:30.807Z,50
2018-03-02T16:05:30.720Z,50
2018-03-02T16:06:29.887Z,50
2018-03-02T16:07:29.183Z,45
2018-03-02T16:08:30.056Z,45
2018-03-02T16:09:29.810Z,45
2018-03-02T16:10:29.606Z,45
2018-03-02T16:11:30.179Z,40
2018-03-02T16:12:29.603Z,40
2018-03-02T16:13:29.912Z,40
2018-03-02T16:14:30.248Z,40
2018-03-02T16:15:30.228Z,35
2018-03-02T16:16:30.553Z,35
2018-03-02T16:17:30.230Z,35
2018-03-02T16:18:30.267Z,35
2018-03-02T16:19:30.703Z,35
2018-03-02T16:20:30.631Z,30
2018-03-02T16:21:30.917Z,30
2018-03-02T16:22:30.274Z,30
2018-03-02T16:23:30.766Z,30
2018-03-02T16:24:30.055Z,25
2018-03-02T16:25:30.235Z,25
2018-03-02T16:26:30.827Z,25
2018-03-02T16:27:30.861Z,25
2018-03-02T16:28:30.963Z,25
2018-03-02T16:29:31.084Z,20
2018-03-02T16:30:31.014Z,20
2018-03-02T16:31:31.055Z,20
2018-03-02T16:32:31.245Z,20
2018-03-02T16:33:31.615Z,15
2018-03-02T16:34:31.616Z,15
2018-03-02T16:35:31.950Z,15
2018-03-02T16:36:32.277Z,15
2018-03-02T16:37:32.415Z,15
2018-03-02T16:38:32.031Z,10
2018-03-02T16:39:32.602Z,10
2018-03-02T16:40:32.050Z,10
2018-03-02T16:41:32.089Z,10
2018-03-02T16:42:32.647Z,10
2018-03-02T16:43:32.717Z,10
2018-03-02T16:44:32.429Z,5
2018-03-02T16:45:33.284Z,5
2018-03-02T16:46:33.310Z,5
2018-03-02T16:47:33.209Z,5
2018-03-02T16:48:33.369Z,5
2018-03-02T16:49:32.881Z,5
2018-03-02T16:50:33.304Z,5
2018-03-02T16:51:33.233Z,5
2018-03-02T16:52:32.999Z,0
2018-03-02T16:53:33.556Z,0
2018-03-02T16:54:33.534Z,0
2018-03-02T16:55:33.333Z,0
2018-03-02T16:56:33.401Z,0
2018-03-02T16:57:33.723Z,0
2018-03-02T16:58:33.432Z,0
2018-03-02T16:59:33.538Z,0
2018-03-02T17:00:33.339Z,0
2018-03-02T17:01:33.688Z,0
2018-03-02T17:02:33.884Z,0
2018-03-02T17:03:33.989Z,0
2018-03-02T17:04:34.365Z,0
2018-03-02T17:05:34.567Z,0
2018-03-02T17:06:35.282Z,0
2018-03-02T17:07:34.649Z,0
2018-03-02T17:08:35.742Z,0
2018-03-02T17:09:35.157Z,0
2018-03-02T17:10:35.308Z,0
2018-03-02T17:11:35.390Z,0
2018-03-02T17:12:35.656Z,0
2018-03-02T17:13:35.529Z,0
2018-03-02T17:14:36.141Z,0
2018-03-02T17:15:36.502Z,0
2018-03-02T17:16:36.882Z,0
2018-03-02T17:17:37.258Z,0
2018-03-02T17:18:37.148Z,0
2018-03-02T17:19:37.494Z,0
2018-03-02T17:20:37.438Z,0
2018-03-02T17:21:37.864Z,0
2018-03-02T17:22:37.727Z,0
2018-03-02T17:23:38.149Z,0
2018-03-02T17:24:37.742Z,0
2018-03-02T17:25:38.369Z,0
2018-03-02T17:26:38.674Z,0
2018-03-02T17:27:38.556Z,0
2018-03-02T17:28:38.976Z,0
2018-03-02T17:29:38.773Z,0
2018-03-02T17:30:38.929Z,0
2018-03-02T17:31:39.524Z,0
2018-03-02T17:32:39.399Z,0
2018-03-02T17:33:39.486Z,0
2018-03-02T17:34:39.725Z,0
2018-03-02T17:35:38.988Z,0
2018-03-02T17:36:39.389Z,0
2018-03-02T17:37:39.820Z,0
2018-03-02T17:38:40.642Z,0
2018-03-02T17:39:40.577Z,0
2018-03-02T17:40:40.417Z,0
2018-03-02T17:41:42.205Z,0
2018-03-02T17:42:41.273Z,0
2018-03-02T17:43:40.656Z,0
2018-03-02T17:44:41.718Z,0
2018-03-02T17:45:42.039Z,0
2018-03-02T17:46:41.539Z,0
2018-03-02T17:47:41.414Z,0
2018-03-02T17:48:43.155Z,0
2018-03-02T17:49:41.611Z,0
2018-03-02T17:50:41.386Z,0
2018-03-02T17:51:41.981Z,0
2018-03-02T17:52:42.898Z,0
2018-03-02T17:53:42.091Z,0
2018-03-02T17:54:43.847Z,0
2018-03-02T17:55:42.519Z,0
2018-03-02T17:56:42.540Z,0
2018-03-02T17:57:43.264Z,0
2018-03-02T17:58:43.865Z,0
2018-03-02T17:59:43.763Z,0
2018-03-02T18:00:44.328Z,0
2018-03-02T18:01:44.337Z,0
2018-03-02T18:02:45.450Z,0
2018-03-02T18:03:45.857Z,0
2018-03-02T18:04:46.163Z,0
2018-03-02T18:05:45.561Z,0
2018-03-02T18:06:44.976Z,0
2018-03-02T18:07:45.156Z,0
2018-03-02T18:08:44.266Z,0
2018-03-02T18:09:46.884Z,0
2018-03-02T18:10:46.185Z,0
2018-03-02T18:11:44.761Z,0
2018-03-02T18:12:44.632Z,0
2018-03-02T18:13:44.471Z,0
2018-03-02T18:14:46.831Z,0
2018-03-02T18:15:48.722Z,0
2018-03-02T18:16:47.872Z,0
2018-03-02T18:18:11.631Z,0
2018-03-02T18:18:55.963Z,0
2018-03-02T18:19:47.038Z,0
2018-03-02T18:20:46.867Z,0
2018-03-02T18:21:47.486Z,0
2018-03-02T18:22:47.353Z,0
2018-03-02T18:23:46.168Z,0
2018-03-02T18:24:46.496Z,0
2018-03-02T18:25:47.026Z,0
2018-03-02T18:26:46.645Z,0
2018-03-02T18:27:48.437Z,0
2018-03-02T18:28:46.836Z,0
2018-03-02T18:29:45.842Z,0
2018-03-02T18:30:47.398Z,0
2018-03-02T18:31:47.231Z,0
2018-03-02T18:32:47.160Z,0
2018-03-02T18:33:46.634Z,0
